sensor_id;sensor_type;location;lat;lon;timestamp;temperature;humidity
14008;DHT22;61651;45.508;12.232;2023-03-01T00:02:30;8.40;98.50
14008;DHT22;61651;45.508;12.232;2023-03-01T00:05:32;8.40;98.50
14008;DHT22;61651;45.508;12.232;2023-03-01T00:08:35;8.40;98.50
14008;DHT22;61651;45.508;12.232;2023-03-01T00:11:37;8.40;98.50
14008;DHT22;61651;45.508;12.232;2023-03-01T00:14:39;8.40;98.50
14008;DHT22;61651;45.508;12.232;2023-03-01T00:17:42;8.40;98.40
14008;DHT22;61651;45.508;12.232;2023-03-01T00:20:49;8.30;98.50
14008;DHT22;61651;45.508;12.232;2023-03-01T00:23:52;8.40;98.60
14008;DHT22;61651;45.508;12.232;2023-03-01T00:26:54;8.40;98.40
14008;DHT22;61651;45.508;12.232;2023-03-01T00:29:57;8.30;98.30
14008;DHT22;61651;45.508;12.232;2023-03-01T00:33:00;8.40;98.40
14008;DHT22;61651;45.508;12.232;2023-03-01T00:36:03;8.30;98.30
14008;DHT22;61651;45.508;12.232;2023-03-01T00:39:09;8.30;98.30
14008;DHT22;61651;45.508;12.232;2023-03-01T00:42:12;8.40;98.40
14008;DHT22;61651;45.508;12.232;2023-03-01T00:45:14;8.20;98.30
14008;DHT22;61651;45.508;12.232;2023-03-01T00:48:17;8.30;98.20
14008;DHT22;61651;45.508;12.232;2023-03-01T00:51:21;8.30;98.30
14008;DHT22;61651;45.508;12.232;2023-03-01T00:54:23;8.30;98.40
14008;DHT22;61651;45.508;12.232;2023-03-01T00:57:25;8.40;98.30
14008;DHT22;61651;45.508;12.232;2023-03-01T01:00:27;8.50;98.30
14008;DHT22;61651;45.508;12.232;2023-03-01T01:03:30;8.40;98.30
14008;DHT22;61651;45.508;12.232;2023-03-01T01:06:35;8.50;98.20
14008;DHT22;61651;45.508;12.232;2023-03-01T01:09:37;8.50;98.00
14008;DHT22;61651;45.508;12.232;2023-03-01T01:12:39;8.50;98.10
14008;DHT22;61651;45.508;12.232;2023-03-01T01:15:41;8.50;98.20
14008;DHT22;61651;45.508;12.232;2023-03-01T01:18:45;8.50;98.20
14008;DHT22;61651;45.508;12.232;2023-03-01T01:21:47;8.70;98.10
14008;DHT22;61651;45.508;12.232;2023-03-01T01:24:49;8.80;98.20
14008;DHT22;61651;45.508;12.232;2023-03-01T01:27:51;8.80;98.00
14008;DHT22;61651;45.508;12.232;2023-03-01T01:30:53;8.80;98.00
14008;DHT22;61651;45.508;12.232;2023-03-01T01:33:57;8.90;98.10
14008;DHT22;61651;45.508;12.232;2023-03-01T01:37:00;8.90;97.90
14008;DHT22;61651;45.508;12.232;2023-03-01T01:40:04;8.90;98.10
14008;DHT22;61651;45.508;12.232;2023-03-01T01:43:11;8.80;98.10
14008;DHT22;61651;45.508;12.232;2023-03-01T01:46:23;8.80;98.10
14008;DHT22;61651;45.508;12.232;2023-03-01T01:49:33;8.90;98.10
14008;DHT22;61651;45.508;12.232;2023-03-01T01:52:37;9.00;98.10
14008;DHT22;61651;45.508;12.232;2023-03-01T01:55:42;9.00;98.00
14008;DHT22;61651;45.508;12.232;2023-03-01T01:58:45;9.00;98.00
14008;DHT22;61651;45.508;12.232;2023-03-01T02:01:48;9.00;97.70
14008;DHT22;61651;45.508;12.232;2023-03-01T02:04:55;9.00;97.70
14008;DHT22;61651;45.508;12.232;2023-03-01T02:08:01;8.90;97.80
14008;DHT22;61651;45.508;12.232;2023-03-01T02:11:03;8.80;98.00
14008;DHT22;61651;45.508;12.232;2023-03-01T02:14:06;8.70;98.10
14008;DHT22;61651;45.508;12.232;2023-03-01T02:17:08;8.80;98.30
14008;DHT22;61651;45.508;12.232;2023-03-01T02:20:19;8.90;98.10
14008;DHT22;61651;45.508;12.232;2023-03-01T02:23:24;9.00;98.10
14008;DHT22;61651;45.508;12.232;2023-03-01T02:26:32;9.00;97.70
14008;DHT22;61651;45.508;12.232;2023-03-01T02:29:37;8.80;97.70
14008;DHT22;61651;45.508;12.232;2023-03-01T02:32:40;8.90;97.80
14008;DHT22;61651;45.508;12.232;2023-03-01T02:35:43;8.90;97.90
14008;DHT22;61651;45.508;12.232;2023-03-01T02:38:45;9.00;98.00
14008;DHT22;61651;45.508;12.232;2023-03-01T02:41:50;9.10;97.90
14008;DHT22;61651;45.508;12.232;2023-03-01T02:44:54;9.10;97.90
14008;DHT22;61651;45.508;12.232;2023-03-01T02:47:57;9.20;97.80
14008;DHT22;61651;45.508;12.232;2023-03-01T02:51:05;9.10;97.70
14008;DHT22;61651;45.508;12.232;2023-03-01T02:54:17;9.10;97.90
14008;DHT22;61651;45.508;12.232;2023-03-01T02:57:23;9.10;97.90
14008;DHT22;61651;45.508;12.232;2023-03-01T03:00:34;9.00;97.90
14008;DHT22;61651;45.508;12.232;2023-03-01T03:03:40;9.10;97.90
14008;DHT22;61651;45.508;12.232;2023-03-01T03:06:43;9.10;97.80
14008;DHT22;61651;45.508;12.232;2023-03-01T03:09:45;9.00;98.10
14008;DHT22;61651;45.508;12.232;2023-03-01T03:12:49;8.90;98.00
14008;DHT22;61651;45.508;12.232;2023-03-01T03:15:54;8.80;98.30
14008;DHT22;61651;45.508;12.232;2023-03-01T03:18:56;8.90;98.20
14008;DHT22;61651;45.508;12.232;2023-03-01T03:22:05;8.90;98.20
14008;DHT22;61651;45.508;12.232;2023-03-01T03:25:09;8.90;98.10
14008;DHT22;61651;45.508;12.232;2023-03-01T03:28:12;8.90;98.10
14008;DHT22;61651;45.508;12.232;2023-03-01T03:31:15;8.80;98.00
14008;DHT22;61651;45.508;12.232;2023-03-01T03:34:17;8.80;98.10
14008;DHT22;61651;45.508;12.232;2023-03-01T03:37:19;8.90;98.10
14008;DHT22;61651;45.508;12.232;2023-03-01T03:40:40;8.90;97.90
14008;DHT22;61651;45.508;12.232;2023-03-01T03:43:43;9.00;97.90
14008;DHT22;61651;45.508;12.232;2023-03-01T03:46:47;9.10;97.90
14008;DHT22;61651;45.508;12.232;2023-03-01T03:49:49;9.10;97.90
14008;DHT22;61651;45.508;12.232;2023-03-01T03:52:51;9.10;97.90
14008;DHT22;61651;45.508;12.232;2023-03-01T03:55:53;9.00;97.90
14008;DHT22;61651;45.508;12.232;2023-03-01T03:58:55;9.10;98.00
14008;DHT22;61651;45.508;12.232;2023-03-01T04:01:58;9.20;97.90
14008;DHT22;61651;45.508;12.232;2023-03-01T04:05:01;9.20;97.80
14008;DHT22;61651;45.508;12.232;2023-03-01T04:08:03;9.20;98.00
14008;DHT22;61651;45.508;12.232;2023-03-01T04:11:08;9.20;97.90
14008;DHT22;61651;45.508;12.232;2023-03-01T04:14:28;9.20;98.10
14008;DHT22;61651;45.508;12.232;2023-03-01T04:17:31;9.20;98.00
14008;DHT22;61651;45.508;12.232;2023-03-01T04:20:35;9.30;98.00
14008;DHT22;61651;45.508;12.232;2023-03-01T04:23:37;9.30;97.90
14008;DHT22;61651;45.508;12.232;2023-03-01T04:26:41;9.20;98.00
14008;DHT22;61651;45.508;12.232;2023-03-01T04:29:43;9.20;98.10
14008;DHT22;61651;45.508;12.232;2023-03-01T04:32:46;9.20;98.10
14008;DHT22;61651;45.508;12.232;2023-03-01T04:35:49;9.30;98.10
14008;DHT22;61651;45.508;12.232;2023-03-01T04:38:52;9.30;98.20
14008;DHT22;61651;45.508;12.232;2023-03-01T04:41:54;9.40;98.30
14008;DHT22;61651;45.508;12.232;2023-03-01T04:44:56;9.40;98.10
14008;DHT22;61651;45.508;12.232;2023-03-01T04:47:59;9.50;98.10
14008;DHT22;61651;45.508;12.232;2023-03-01T04:51:02;9.50;98.10
14008;DHT22;61651;45.508;12.232;2023-03-01T04:54:04;9.40;98.10
14008;DHT22;61651;45.508;12.232;2023-03-01T04:57:09;9.40;98.10
14008;DHT22;61651;45.508;12.232;2023-03-01T05:00:12;9.50;98.10
14008;DHT22;61651;45.508;12.232;2023-03-01T05:03:25;9.50;98.10
14008;DHT22;61651;45.508;12.232;2023-03-01T05:06:27;9.50;98.10
14008;DHT22;61651;45.508;12.232;2023-03-01T05:09:29;9.50;98.20
14008;DHT22;61651;45.508;12.232;2023-03-01T05:12:31;9.50;98.30
14008;DHT22;61651;45.508;12.232;2023-03-01T05:15:33;9.60;98.10
14008;DHT22;61651;45.508;12.232;2023-03-01T05:18:39;9.60;98.30
14008;DHT22;61651;45.508;12.232;2023-03-01T05:21:43;9.70;98.30
14008;DHT22;61651;45.508;12.232;2023-03-01T05:25:05;9.70;98.40
14008;DHT22;61651;45.508;12.232;2023-03-01T05:28:11;9.70;98.20
14008;DHT22;61651;45.508;12.232;2023-03-01T05:31:13;9.70;98.20
14008;DHT22;61651;45.508;12.232;2023-03-01T05:34:16;9.70;98.40
14008;DHT22;61651;45.508;12.232;2023-03-01T05:37:19;9.80;98.30
14008;DHT22;61651;45.508;12.232;2023-03-01T05:40:22;9.80;98.30
14008;DHT22;61651;45.508;12.232;2023-03-01T05:43:24;9.70;98.40
14008;DHT22;61651;45.508;12.232;2023-03-01T05:46:26;9.70;98.50
14008;DHT22;61651;45.508;12.232;2023-03-01T05:49:31;9.70;98.60
14008;DHT22;61651;45.508;12.232;2023-03-01T05:52:33;9.70;99.00
14008;DHT22;61651;45.508;12.232;2023-03-01T05:55:36;9.80;98.60
14008;DHT22;61651;45.508;12.232;2023-03-01T05:58:38;9.80;98.60
14008;DHT22;61651;45.508;12.232;2023-03-01T06:01:40;9.90;98.70
14008;DHT22;61651;45.508;12.232;2023-03-01T06:04:44;9.90;98.90
14008;DHT22;61651;45.508;12.232;2023-03-01T06:07:46;9.70;99.10
14008;DHT22;61651;45.508;12.232;2023-03-01T06:10:48;9.80;99.20
14008;DHT22;61651;45.508;12.232;2023-03-01T06:13:50;9.90;99.30
14008;DHT22;61651;45.508;12.232;2023-03-01T06:16:52;9.90;99.10
14008;DHT22;61651;45.508;12.232;2023-03-01T06:19:55;9.80;99.00
14008;DHT22;61651;45.508;12.232;2023-03-01T06:22:57;9.80;99.10
14008;DHT22;61651;45.508;12.232;2023-03-01T06:26:04;9.80;99.10
14008;DHT22;61651;45.508;12.232;2023-03-01T06:29:06;9.70;99.20
14008;DHT22;61651;45.508;12.232;2023-03-01T06:32:09;9.90;99.20
14008;DHT22;61651;45.508;12.232;2023-03-01T06:35:14;9.90;99.20
14008;DHT22;61651;45.508;12.232;2023-03-01T06:38:18;10.00;99.90
14008;DHT22;61651;45.508;12.232;2023-03-01T06:41:20;10.10;99.80
14008;DHT22;61651;45.508;12.232;2023-03-01T06:44:22;10.10;99.20
14008;DHT22;61651;45.508;12.232;2023-03-01T06:47:24;10.20;99.30
14008;DHT22;61651;45.508;12.232;2023-03-01T06:50:27;10.10;99.00
14008;DHT22;61651;45.508;12.232;2023-03-01T06:53:29;10.10;99.40
14008;DHT22;61651;45.508;12.232;2023-03-01T06:56:32;10.20;99.50
14008;DHT22;61651;45.508;12.232;2023-03-01T06:59:34;10.30;99.30
14008;DHT22;61651;45.508;12.232;2023-03-01T07:02:36;10.30;99.60
14008;DHT22;61651;45.508;12.232;2023-03-01T07:05:40;10.40;98.70
14008;DHT22;61651;45.508;12.232;2023-03-01T07:08:42;10.40;98.60
14008;DHT22;61651;45.508;12.232;2023-03-01T07:11:44;10.40;98.60
14008;DHT22;61651;45.508;12.232;2023-03-01T07:14:45;10.40;98.60
14008;DHT22;61651;45.508;12.232;2023-03-01T07:17:47;10.40;98.50
14008;DHT22;61651;45.508;12.232;2023-03-01T07:20:52;10.50;98.40
14008;DHT22;61651;45.508;12.232;2023-03-01T07:23:54;10.50;98.50
14008;DHT22;61651;45.508;12.232;2023-03-01T07:26:56;10.50;98.40
14008;DHT22;61651;45.508;12.232;2023-03-01T07:29:59;10.60;98.50
14008;DHT22;61651;45.508;12.232;2023-03-01T07:33:01;10.60;98.40
14008;DHT22;61651;45.508;12.232;2023-03-01T07:36:05;10.60;98.20
14008;DHT22;61651;45.508;12.232;2023-03-01T07:39:08;10.70;98.20
14008;DHT22;61651;45.508;12.232;2023-03-01T07:42:10;10.70;98.00
14008;DHT22;61651;45.508;12.232;2023-03-01T07:45:12;10.60;97.90
14008;DHT22;61651;45.508;12.232;2023-03-01T07:48:14;10.60;98.20
14008;DHT22;61651;45.508;12.232;2023-03-01T07:51:18;10.60;97.90
14008;DHT22;61651;45.508;12.232;2023-03-01T07:54:20;10.70;98.10
14008;DHT22;61651;45.508;12.232;2023-03-01T07:57:22;10.70;98.20
14008;DHT22;61651;45.508;12.232;2023-03-01T08:00:25;10.60;98.10
14008;DHT22;61651;45.508;12.232;2023-03-01T08:03:27;10.60;98.20
14008;DHT22;61651;45.508;12.232;2023-03-01T08:06:30;10.70;98.30
14008;DHT22;61651;45.508;12.232;2023-03-01T08:09:34;10.70;98.40
14008;DHT22;61651;45.508;12.232;2023-03-01T08:12:37;10.70;98.50
14008;DHT22;61651;45.508;12.232;2023-03-01T08:15:39;10.90;98.40
14008;DHT22;61651;45.508;12.232;2023-03-01T08:18:41;11.00;98.60
14008;DHT22;61651;45.508;12.232;2023-03-01T08:21:45;11.00;98.50
14008;DHT22;61651;45.508;12.232;2023-03-01T08:24:47;11.00;98.20
14008;DHT22;61651;45.508;12.232;2023-03-01T08:27:49;10.90;98.00
14008;DHT22;61651;45.508;12.232;2023-03-01T08:30:51;11.00;98.70
14008;DHT22;61651;45.508;12.232;2023-03-01T08:33:55;11.10;98.30
14008;DHT22;61651;45.508;12.232;2023-03-01T08:36:59;11.10;98.10
14008;DHT22;61651;45.508;12.232;2023-03-01T08:40:01;11.10;98.40
14008;DHT22;61651;45.508;12.232;2023-03-01T08:43:04;11.20;98.30
14008;DHT22;61651;45.508;12.232;2023-03-01T08:46:06;11.30;98.20
14008;DHT22;61651;45.508;12.232;2023-03-01T08:49:11;11.50;98.00
14008;DHT22;61651;45.508;12.232;2023-03-01T08:52:14;11.70;98.00
14008;DHT22;61651;45.508;12.232;2023-03-01T08:55:16;12.00;97.80
14008;DHT22;61651;45.508;12.232;2023-03-01T08:58:18;12.10;97.60
14008;DHT22;61651;45.508;12.232;2023-03-01T09:01:20;12.20;97.40
14008;DHT22;61651;45.508;12.232;2023-03-01T09:04:23;12.30;96.80
14008;DHT22;61651;45.508;12.232;2023-03-01T09:07:27;12.40;97.10
14008;DHT22;61651;45.508;12.232;2023-03-01T09:10:29;12.40;97.20
14008;DHT22;61651;45.508;12.232;2023-03-01T09:13:32;12.40;97.20
14008;DHT22;61651;45.508;12.232;2023-03-01T09:16:34;12.40;97.40
14008;DHT22;61651;45.508;12.232;2023-03-01T09:19:37;12.30;96.80
14008;DHT22;61651;45.508;12.232;2023-03-01T09:22:40;12.30;96.90
14008;DHT22;61651;45.508;12.232;2023-03-01T09:25:42;12.30;97.20
14008;DHT22;61651;45.508;12.232;2023-03-01T09:28:44;12.30;97.20
14008;DHT22;61651;45.508;12.232;2023-03-01T09:31:46;12.40;97.70
14008;DHT22;61651;45.508;12.232;2023-03-01T09:34:48;12.40;96.90
14008;DHT22;61651;45.508;12.232;2023-03-01T09:38:09;12.40;96.80
14008;DHT22;61651;45.508;12.232;2023-03-01T09:41:22;12.30;96.70
14008;DHT22;61651;45.508;12.232;2023-03-01T09:44:32;12.50;97.40
14008;DHT22;61651;45.508;12.232;2023-03-01T09:47:37;12.60;97.30
14008;DHT22;61651;45.508;12.232;2023-03-01T09:50:41;12.60;97.30
14008;DHT22;61651;45.508;12.232;2023-03-01T09:53:46;12.70;97.30
14008;DHT22;61651;45.508;12.232;2023-03-01T09:56:57;12.60;97.20
14008;DHT22;61651;45.508;12.232;2023-03-01T10:00:11;12.60;97.60
14008;DHT22;61651;45.508;12.232;2023-03-01T10:03:17;12.80;97.10
14008;DHT22;61651;45.508;12.232;2023-03-01T10:06:22;12.90;97.40
14008;DHT22;61651;45.508;12.232;2023-03-01T10:09:27;13.00;97.30
14008;DHT22;61651;45.508;12.232;2023-03-01T10:12:36;13.00;97.50
14008;DHT22;61651;45.508;12.232;2023-03-01T10:15:42;13.00;96.90
14008;DHT22;61651;45.508;12.232;2023-03-01T10:18:47;12.90;97.10
14008;DHT22;61651;45.508;12.232;2023-03-01T10:21:53;12.90;97.20
14008;DHT22;61651;45.508;12.232;2023-03-01T10:24:59;12.90;96.90
14008;DHT22;61651;45.508;12.232;2023-03-01T10:28:12;12.90;96.70
14008;DHT22;61651;45.508;12.232;2023-03-01T10:31:19;12.70;97.30
14008;DHT22;61651;45.508;12.232;2023-03-01T10:34:27;12.70;97.90
14008;DHT22;61651;45.508;12.232;2023-03-01T10:37:30;12.70;97.80
14008;DHT22;61651;45.508;12.232;2023-03-01T10:40:34;12.70;98.10
14008;DHT22;61651;45.508;12.232;2023-03-01T10:43:45;12.70;97.70
14008;DHT22;61651;45.508;12.232;2023-03-01T10:46:59;12.80;97.40
14008;DHT22;61651;45.508;12.232;2023-03-01T10:50:03;12.80;97.30
14008;DHT22;61651;45.508;12.232;2023-03-01T10:53:22;12.70;97.30
14008;DHT22;61651;45.508;12.232;2023-03-01T10:56:26;12.70;97.70
14008;DHT22;61651;45.508;12.232;2023-03-01T10:59:33;12.90;97.90
14008;DHT22;61651;45.508;12.232;2023-03-01T11:02:36;12.70;96.90
14008;DHT22;61651;45.508;12.232;2023-03-01T11:05:51;12.80;97.30
14008;DHT22;61651;45.508;12.232;2023-03-01T11:08:54;12.80;97.50
14008;DHT22;61651;45.508;12.232;2023-03-01T11:12:00;12.80;97.40
14008;DHT22;61651;45.508;12.232;2023-03-01T11:15:02;12.70;97.70
14008;DHT22;61651;45.508;12.232;2023-03-01T11:18:04;12.70;97.80
14008;DHT22;61651;45.508;12.232;2023-03-01T11:21:19;12.70;97.90
14008;DHT22;61651;45.508;12.232;2023-03-01T11:24:26;12.70;98.00
14008;DHT22;61651;45.508;12.232;2023-03-01T11:27:35;12.70;97.90
14008;DHT22;61651;45.508;12.232;2023-03-01T11:30:43;12.70;97.70
14008;DHT22;61651;45.508;12.232;2023-03-01T11:33:50;12.70;97.80
14008;DHT22;61651;45.508;12.232;2023-03-01T11:36:58;12.50;97.70
14008;DHT22;61651;45.508;12.232;2023-03-01T11:40:10;12.50;98.00
14008;DHT22;61651;45.508;12.232;2023-03-01T11:43:21;12.50;97.80
14008;DHT22;61651;45.508;12.232;2023-03-01T11:47:07;12.50;97.70
14008;DHT22;61651;45.508;12.232;2023-03-01T11:50:26;12.40;98.00
14008;DHT22;61651;45.508;12.232;2023-03-01T11:53:47;12.50;98.00
14008;DHT22;61651;45.508;12.232;2023-03-01T11:56:55;12.50;98.00
14008;DHT22;61651;45.508;12.232;2023-03-01T12:00:23;12.50;98.40
14008;DHT22;61651;45.508;12.232;2023-03-01T12:03:54;12.40;99.10
14008;DHT22;61651;45.508;12.232;2023-03-01T12:07:05;12.40;99.00
14008;DHT22;61651;45.508;12.232;2023-03-01T12:10:25;12.20;98.50
14008;DHT22;61651;45.508;12.232;2023-03-01T12:13:45;12.30;98.80
14008;DHT22;61651;45.508;12.232;2023-03-01T12:17:12;12.20;98.60
14008;DHT22;61651;45.508;12.232;2023-03-01T12:20:23;12.20;98.50
14008;DHT22;61651;45.508;12.232;2023-03-01T12:27:05;12.20;99.20
14008;DHT22;61651;45.508;12.232;2023-03-01T12:30:19;12.20;99.50
14008;DHT22;61651;45.508;12.232;2023-03-01T12:33:33;12.20;99.30
14008;DHT22;61651;45.508;12.232;2023-03-01T12:37:09;12.10;99.20
14008;DHT22;61651;45.508;12.232;2023-03-01T12:40:33;12.10;99.40
14008;DHT22;61651;45.508;12.232;2023-03-01T12:43:48;12.20;99.50
14008;DHT22;61651;45.508;12.232;2023-03-01T12:47:07;12.00;99.10
14008;DHT22;61651;45.508;12.232;2023-03-01T12:50:18;12.20;99.00
14008;DHT22;61651;45.508;12.232;2023-03-01T12:53:26;12.20;99.30
14008;DHT22;61651;45.508;12.232;2023-03-01T12:56:29;12.30;98.90
14008;DHT22;61651;45.508;12.232;2023-03-01T12:59:38;12.30;99.90
14008;DHT22;61651;45.508;12.232;2023-03-01T13:02:47;12.30;99.80
14008;DHT22;61651;45.508;12.232;2023-03-01T13:06:02;12.40;99.80
14008;DHT22;61651;45.508;12.232;2023-03-01T13:09:17;12.40;99.30
14008;DHT22;61651;45.508;12.232;2023-03-01T13:12:51;12.40;99.00
14008;DHT22;61651;45.508;12.232;2023-03-01T13:15:53;12.30;99.10
14008;DHT22;61651;45.508;12.232;2023-03-01T13:19:06;12.20;99.40
14008;DHT22;61651;45.508;12.232;2023-03-01T13:22:27;12.20;99.30
14008;DHT22;61651;45.508;12.232;2023-03-01T13:25:30;12.20;99.20
14008;DHT22;61651;45.508;12.232;2023-03-01T13:28:40;12.20;98.90
14008;DHT22;61651;45.508;12.232;2023-03-01T13:31:58;12.20;99.40
14008;DHT22;61651;45.508;12.232;2023-03-01T13:38:56;12.40;99.90
14008;DHT22;61651;45.508;12.232;2023-03-01T13:41:59;12.40;99.90
14008;DHT22;61651;45.508;12.232;2023-03-01T13:45:01;12.40;99.90
14008;DHT22;61651;45.508;12.232;2023-03-01T13:48:09;12.50;99.90
14008;DHT22;61651;45.508;12.232;2023-03-01T13:51:12;12.60;99.90
14008;DHT22;61651;45.508;12.232;2023-03-01T13:54:21;12.60;99.90
14008;DHT22;61651;45.508;12.232;2023-03-01T13:57:29;12.70;99.90
14008;DHT22;61651;45.508;12.232;2023-03-01T14:00:36;12.80;99.90
14008;DHT22;61651;45.508;12.232;2023-03-01T14:03:41;12.70;99.90
14008;DHT22;61651;45.508;12.232;2023-03-01T14:06:43;12.70;99.90
14008;DHT22;61651;45.508;12.232;2023-03-01T14:09:49;12.70;99.90
14008;DHT22;61651;45.508;12.232;2023-03-01T14:12:57;12.70;99.90
14008;DHT22;61651;45.508;12.232;2023-03-01T14:16:14;12.70;99.90
14008;DHT22;61651;45.508;12.232;2023-03-01T14:19:24;12.80;99.90
14008;DHT22;61651;45.508;12.232;2023-03-01T14:22:30;12.80;99.90
14008;DHT22;61651;45.508;12.232;2023-03-01T14:25:36;12.90;99.90
14008;DHT22;61651;45.508;12.232;2023-03-01T14:28:39;12.80;99.90
14008;DHT22;61651;45.508;12.232;2023-03-01T14:31:43;12.90;99.90
14008;DHT22;61651;45.508;12.232;2023-03-01T14:34:49;12.80;99.90
14008;DHT22;61651;45.508;12.232;2023-03-01T14:37:51;12.90;99.90
14008;DHT22;61651;45.508;12.232;2023-03-01T14:40:57;12.90;99.90
14008;DHT22;61651;45.508;12.232;2023-03-01T14:44:01;12.90;99.90
14008;DHT22;61651;45.508;12.232;2023-03-01T14:47:05;12.80;99.90
14008;DHT22;61651;45.508;12.232;2023-03-01T14:50:15;12.90;99.90
14008;DHT22;61651;45.508;12.232;2023-03-01T14:53:21;12.80;99.90
14008;DHT22;61651;45.508;12.232;2023-03-01T14:56:25;12.90;99.90
14008;DHT22;61651;45.508;12.232;2023-03-01T14:59:28;12.90;99.90
14008;DHT22;61651;45.508;12.232;2023-03-01T15:02:30;12.90;99.90
14008;DHT22;61651;45.508;12.232;2023-03-01T15:05:34;12.90;99.90
14008;DHT22;61651;45.508;12.232;2023-03-01T15:08:37;12.90;99.90
14008;DHT22;61651;45.508;12.232;2023-03-01T15:11:44;12.80;99.90
14008;DHT22;61651;45.508;12.232;2023-03-01T15:14:46;12.70;99.90
14008;DHT22;61651;45.508;12.232;2023-03-01T15:17:52;12.60;99.90
14008;DHT22;61651;45.508;12.232;2023-03-01T15:21:05;12.60;99.90
14008;DHT22;61651;45.508;12.232;2023-03-01T15:24:17;12.60;99.90
14008;DHT22;61651;45.508;12.232;2023-03-01T15:27:24;12.50;99.90
14008;DHT22;61651;45.508;12.232;2023-03-01T15:30:29;12.50;99.90
14008;DHT22;61651;45.508;12.232;2023-03-01T15:33:37;12.30;99.90
14008;DHT22;61651;45.508;12.232;2023-03-01T15:36:42;12.30;99.90
14008;DHT22;61651;45.508;12.232;2023-03-01T15:39:53;12.20;99.90
14008;DHT22;61651;45.508;12.232;2023-03-01T15:42:57;12.20;99.90
14008;DHT22;61651;45.508;12.232;2023-03-01T15:45:59;12.20;99.90
14008;DHT22;61651;45.508;12.232;2023-03-01T15:49:05;12.20;99.90
14008;DHT22;61651;45.508;12.232;2023-03-01T15:52:13;12.00;99.90
14008;DHT22;61651;45.508;12.232;2023-03-01T15:55:19;11.90;99.90
14008;DHT22;61651;45.508;12.232;2023-03-01T15:58:24;11.70;99.90
14008;DHT22;61651;45.508;12.232;2023-03-01T16:01:26;11.60;99.90
14008;DHT22;61651;45.508;12.232;2023-03-01T16:04:28;11.50;99.90
14008;DHT22;61651;45.508;12.232;2023-03-01T16:07:30;11.50;99.90
14008;DHT22;61651;45.508;12.232;2023-03-01T16:10:33;11.40;99.90
14008;DHT22;61651;45.508;12.232;2023-03-01T16:13:36;11.30;99.90
14008;DHT22;61651;45.508;12.232;2023-03-01T16:16:38;11.20;99.90
14008;DHT22;61651;45.508;12.232;2023-03-01T16:19:40;11.10;99.90
14008;DHT22;61651;45.508;12.232;2023-03-01T16:22:42;11.20;99.90
14008;DHT22;61651;45.508;12.232;2023-03-01T16:25:45;11.20;99.90
14008;DHT22;61651;45.508;12.232;2023-03-01T16:28:48;11.00;99.90
14008;DHT22;61651;45.508;12.232;2023-03-01T16:31:50;11.00;99.90
14008;DHT22;61651;45.508;12.232;2023-03-01T16:34:52;11.00;99.90
14008;DHT22;61651;45.508;12.232;2023-03-01T16:37:54;11.10;99.90
14008;DHT22;61651;45.508;12.232;2023-03-01T16:40:56;11.00;99.90
14008;DHT22;61651;45.508;12.232;2023-03-01T16:43:59;10.90;99.90
14008;DHT22;61651;45.508;12.232;2023-03-01T16:47:01;10.90;99.90
14008;DHT22;61651;45.508;12.232;2023-03-01T16:50:04;10.90;99.90
14008;DHT22;61651;45.508;12.232;2023-03-01T16:53:06;10.90;99.90
14008;DHT22;61651;45.508;12.232;2023-03-01T16:56:10;10.90;99.90
14008;DHT22;61651;45.508;12.232;2023-03-01T16:59:13;10.80;99.90
14008;DHT22;61651;45.508;12.232;2023-03-01T17:02:15;10.70;99.90
14008;DHT22;61651;45.508;12.232;2023-03-01T17:05:20;10.70;99.90
14008;DHT22;61651;45.508;12.232;2023-03-01T17:08:24;10.60;99.90
14008;DHT22;61651;45.508;12.232;2023-03-01T17:11:26;10.50;99.90
14008;DHT22;61651;45.508;12.232;2023-03-01T17:14:30;10.50;99.90
14008;DHT22;61651;45.508;12.232;2023-03-01T17:17:32;10.50;99.90
14008;DHT22;61651;45.508;12.232;2023-03-01T17:20:35;10.30;99.90
14008;DHT22;61651;45.508;12.232;2023-03-01T17:23:39;10.30;99.90
14008;DHT22;61651;45.508;12.232;2023-03-01T17:26:41;10.20;99.90
14008;DHT22;61651;45.508;12.232;2023-03-01T17:29:45;10.30;99.90
14008;DHT22;61651;45.508;12.232;2023-03-01T17:32:47;10.30;99.90
14008;DHT22;61651;45.508;12.232;2023-03-01T17:35:49;10.30;99.90
14008;DHT22;61651;45.508;12.232;2023-03-01T17:38:51;10.30;99.90
14008;DHT22;61651;45.508;12.232;2023-03-01T17:41:54;10.30;99.90
14008;DHT22;61651;45.508;12.232;2023-03-01T17:44:57;10.30;99.90
14008;DHT22;61651;45.508;12.232;2023-03-01T17:48:00;10.30;99.90
14008;DHT22;61651;45.508;12.232;2023-03-01T17:51:05;10.30;99.90
14008;DHT22;61651;45.508;12.232;2023-03-01T17:54:08;10.20;99.90
14008;DHT22;61651;45.508;12.232;2023-03-01T17:57:10;10.30;99.90
14008;DHT22;61651;45.508;12.232;2023-03-01T18:00:16;10.20;99.90
14008;DHT22;61651;45.508;12.232;2023-03-01T18:03:18;10.20;99.90
14008;DHT22;61651;45.508;12.232;2023-03-01T18:06:23;10.20;99.90
14008;DHT22;61651;45.508;12.232;2023-03-01T18:09:26;10.10;99.90
14008;DHT22;61651;45.508;12.232;2023-03-01T18:12:28;10.20;99.90
14008;DHT22;61651;45.508;12.232;2023-03-01T18:15:32;10.00;99.90
14008;DHT22;61651;45.508;12.232;2023-03-01T18:18:34;10.10;99.90
14008;DHT22;61651;45.508;12.232;2023-03-01T18:21:36;10.10;99.90
14008;DHT22;61651;45.508;12.232;2023-03-01T18:24:38;10.10;99.90
14008;DHT22;61651;45.508;12.232;2023-03-01T18:27:40;10.10;99.90
14008;DHT22;61651;45.508;12.232;2023-03-01T18:30:44;10.10;99.90
14008;DHT22;61651;45.508;12.232;2023-03-01T18:33:46;10.00;99.90
14008;DHT22;61651;45.508;12.232;2023-03-01T18:36:49;10.10;99.90
14008;DHT22;61651;45.508;12.232;2023-03-01T18:39:53;10.00;99.90
14008;DHT22;61651;45.508;12.232;2023-03-01T18:42:55;10.10;99.90
14008;DHT22;61651;45.508;12.232;2023-03-01T18:45:59;10.20;99.90
14008;DHT22;61651;45.508;12.232;2023-03-01T18:49:01;10.00;99.90
14008;DHT22;61651;45.508;12.232;2023-03-01T18:52:03;10.00;99.90
14008;DHT22;61651;45.508;12.232;2023-03-01T18:55:05;10.00;99.90
14008;DHT22;61651;45.508;12.232;2023-03-01T18:58:09;10.10;99.90
14008;DHT22;61651;45.508;12.232;2023-03-01T19:01:15;10.20;99.90
14008;DHT22;61651;45.508;12.232;2023-03-01T19:04:17;10.20;99.90
14008;DHT22;61651;45.508;12.232;2023-03-01T19:07:19;10.20;99.90
14008;DHT22;61651;45.508;12.232;2023-03-01T19:10:22;10.20;99.90
14008;DHT22;61651;45.508;12.232;2023-03-01T19:13:27;10.20;99.90
14008;DHT22;61651;45.508;12.232;2023-03-01T19:16:32;10.30;99.90
14008;DHT22;61651;45.508;12.232;2023-03-01T19:19:35;10.30;99.90
14008;DHT22;61651;45.508;12.232;2023-03-01T19:22:37;10.20;99.90
14008;DHT22;61651;45.508;12.232;2023-03-01T19:25:39;10.20;99.90